Lena — V2FR — position and weather

sailwx.info

Track history (hours):
 
Tides and Currents Weather Stations Pressure Air Temp Water Temp Dewpoint Dewpoint Depression Visibility Wind Speed Wind Dir Waves Ship Positions

Lena

Last reported at 2017-Dec-04 09:52 UTC. Time now 2017-Dec-13 08:59 UTC.
Position N 31°21' E 121°39'.
Warning: this ship's position is 8 days out of date.

Length 152 m; draft 6.4 m.

Type: Ship. MMSI: 304080808.

Date/timePositionNaut miles runAvg speedWind from/ knotsBaromVisibWave heightAir tempDewpointWater temp
2017-Dec-04 09:52N 31°21' E 121°39'410.2
2017-Dec-04 09:31N 31°23' E 121°35'8 4.2
2017-Dec-04 07:34N 31°15' E 121°32'1 7.4
2017-Dec-04 07:23N 31°15' E 121°30'6 5.6
2017-Dec-04 06:22N 31°10' E 121°28'4 0.6
2017-Dec-04 00:11N 31°06' E 121°28'0 0.0
2017-Dec-03 22:58N 31°06' E 121°28'8 0.2
2017-Dec-02 05:29N 31°13' E 121°30'2 4.0
2017-Dec-02 05:00N 31°15' E 121°30'9 3.9
2017-Dec-02 02:43N 31°24' E 121°33'1 5.9
2017-Dec-02 02:30N 31°23' E 121°34'810.2
2017-Dec-02 01:45N 31°20' E 121°42'311.2
2017-Dec-02 01:27N 31°17' E 121°44'510.8
2017-Dec-02 01:00N 31°14' E 121°48'510.3
2017-Dec-02 00:30N 31°10' E 121°52'611.4
2017-Dec-02 00:00N 31°07' E 121°58'611.2
2017-Dec-01 23:30N 31°04' E 122°04'612.6
2017-Dec-01 23:00N 31°03' E 122°11'5 9.7
2017-Dec-01 22:30N 31°03' E 122°16'510.0
2017-Dec-01 21:59N 31°02' E 122°22'  
2017-Nov-29 10:54N 31°01' E 122°23'614.8
2017-Nov-29 10:28N 31°02' E 122°16'1210.4
2017-Nov-29 09:21N 31°04' E 122°02'2 6.7
2017-Nov-29 09:00N 31°06' E 121°60'511.0
2017-Nov-29 08:30N 31°08' E 121°54'713.3
2017-Nov-29 08:00N 31°13' E 121°48'1412.5
2017-Nov-29 06:55N 31°22' E 121°37'511.1
2017-Nov-29 06:26N 31°25' E 121°31'3 7.8
2017-Nov-29 06:00N 31°27' E 121°28'612.0
2017-Nov-29 05:30N 31°31' E 121°23'611.7
2017-Nov-29 05:00N 31°35' E 121°18'612.7
2017-Nov-29 04:30N 31°39' E 121°13'510.2
2017-Nov-29 04:00N 31°42' E 121°08'5 5.3
2017-Nov-29 03:02N 31°47' E 121°05'0 0.0
2017-Nov-29 02:59N 31°47' E 121°05'0 0.0
2017-Nov-29 01:07N 31°47' E 121°05'0 0.0
2017-Nov-29 00:55N 31°47' E 121°05'0 0.0
2017-Nov-29 00:01N 31°47' E 121°05'0 0.0
2017-Nov-28 23:52N 31°47' E 121°05'0 0.0
2017-Nov-28 23:09N 31°47' E 121°05'0 0.0
2017-Nov-28 22:57N 31°47' E 121°05'0 0.0
2017-Nov-28 22:27N 31°47' E 121°05'0 0.0
2017-Nov-28 21:48N 31°47' E 121°05'0 0.0
2017-Nov-28 21:21N 31°47' E 121°05'0 0.0
2017-Nov-28 20:59N 31°47' E 121°05'0 0.0
2017-Nov-28 19:29N 31°47' E 121°05'0 0.0
2017-Nov-28 18:46N 31°47' E 121°05'0 0.0
2017-Nov-28 17:10N 31°47' E 121°05'0 0.0
2017-Nov-28 16:55N 31°47' E 121°05'0 0.0
2017-Nov-28 16:30N 31°47' E 121°05'0 0.0
2017-Nov-28 16:00N 31°47' E 121°05'0 0.0
2017-Nov-28 10:49N 31°47' E 121°05'0 0.0
2017-Nov-28 08:45N 31°47' E 121°05'0 0.0
2017-Nov-28 05:56N 31°47' E 121°05'0 0.0
2017-Nov-28 05:29N 31°47' E 121°05'0 0.0
2017-Nov-28 03:40N 31°47' E 121°05'0 0.0
2017-Nov-28 02:06N 31°47' E 121°05'0 0.0
2017-Nov-27 23:14N 31°47' E 121°05'0 0.0
2017-Nov-27 18:42N 31°47' E 121°05'0 0.0
2017-Nov-27 17:08N 31°47' E 121°05'0 0.0
2017-Nov-27 16:50N 31°47' E 121°05'0 0.0
2017-Nov-27 14:43N 31°47' E 121°05'0 0.0
2017-Nov-27 12:00N 31°47' E 121°05'0 0.0
2017-Nov-27 10:14N 31°47' E 121°05'0 0.0
2017-Nov-27 09:59N 31°47' E 121°05'0 0.0
2017-Nov-27 07:46N 31°47' E 121°05'0 0.0
2017-Nov-27 04:36N 31°47' E 121°05'0 0.0
2017-Nov-27 02:29N 31°47' E 121°05'0 0.0
2017-Nov-27 01:59N 31°47' E 121°05'0 0.0
2017-Nov-27 01:26N 31°47' E 121°05'0 0.0
2017-Nov-27 00:38N 31°47' E 121°05'0 0.5
2017-Nov-27 00:20N 31°47' E 121°05'1 2.6
2017-Nov-26 23:50N 31°46' E 121°06'3 9.5
2017-Nov-26 23:29N 31°43' E 121°08'0 0.1
2017-Nov-26 22:43N 31°43' E 121°08'0 0.0
2017-Nov-26 22:25N 31°43' E 121°08'0 0.0
2017-Nov-26 21:58N 31°43' E 121°08'0 0.0
2017-Nov-26 21:31N 31°43' E 121°08'0 0.0
2017-Nov-26 19:36N 31°43' E 121°08'0 0.0
2017-Nov-26 19:24N 31°43' E 121°08'0 0.1
2017-Nov-26 18:59N 31°43' E 121°08'0 0.0
2017-Nov-26 18:17N 31°43' E 121°08'0 0.0
2017-Nov-26 17:41N 31°43' E 121°08'0 0.1
2017-Nov-26 17:11N 31°43' E 121°08'0 0.3
2017-Nov-26 16:59N 31°43' E 121°08'0 0.0
2017-Nov-26 15:52N 31°43' E 121°08'0 0.0
2017-Nov-26 15:25N 31°43' E 121°08'0 0.0
2017-Nov-26 14:18N 31°43' E 121°08'0 0.0
2017-Nov-26 12:05N 31°43' E 121°08'0 0.0
2017-Nov-26 11:59N 31°43' E 121°08'0 0.1
2017-Nov-26 11:29N 31°43' E 121°08'0 0.1
2017-Nov-26 10:56N 31°43' E 121°08'0 0.0
2017-Nov-26 10:23N 31°43' E 121°08'0 1.1
2017-Nov-26 10:00N 31°43' E 121°09'714.0
2017-Nov-26 09:30N 31°38' E 121°15'714.7
2017-Nov-26 09:00N 31°33' E 121°20'612.2
2017-Nov-26 08:30N 31°29' E 121°26'510.8
2017-Nov-26 08:00N 31°25' E 121°31'2 3.6
2017-Nov-26 07:30N 31°24' E 121°31'2 4.8
2017-Nov-26 07:00N 31°21' E 121°31'3 6.5
2017-Nov-26 06:29N 31°19' E 121°33'3 6.5
2017-Nov-26 06:01N 31°16' E 121°33'3 6.2
2017-Nov-26 05:30N 31°14' E 121°30'3 5.6
2017-Nov-26 05:00N 31°11' E 121°28'3 6.5
2017-Nov-26 04:30N 31°08' E 121°27'3 3.2
2017-Nov-26 03:42N 31°06' E 121°28'0 0.0
2017-Nov-26 03:27N 31°06' E 121°28'0 0.0
2017-Nov-26 02:59N 31°06' E 121°28'0 0.0
2017-Nov-26 01:41N 31°06' E 121°28'0 0.0
2017-Nov-26 01:17N 31°06' E 121°28'0 0.0
2017-Nov-26 00:46N 31°06' E 121°28'0 0.0
2017-Nov-26 00:28N 31°06' E 121°28'0 0.0
2017-Nov-25 23:55N 31°06' E 121°28'0 0.0
2017-Nov-25 23:25N 31°06' E 121°28'0 0.0
2017-Nov-25 22:55N 31°06' E 121°28'0 0.0
2017-Nov-25 22:30N 31°06' E 121°28'0 0.0
2017-Nov-25 21:57N 31°06' E 121°28'0 0.0
2017-Nov-25 21:30N 31°06' E 121°28'0 0.0
2017-Nov-25 20:45N 31°06' E 121°28'0 0.0
2017-Nov-25 20:24N 31°06' E 121°28'0 0.0
2017-Nov-25 19:59N 31°06' E 121°28'0 0.0
2017-Nov-25 19:23N 31°06' E 121°28'0 0.0
2017-Nov-25 18:59N 31°06' E 121°28'0 0.0
2017-Nov-25 18:26N 31°06' E 121°28'0 0.0
2017-Nov-25 17:52N 31°06' E 121°28'0 0.0
2017-Nov-25 17:28N 31°06' E 121°28'0 0.0
2017-Nov-25 16:58N 31°06' E 121°28'0 0.0
2017-Nov-25 16:28N 31°06' E 121°28'0 0.0
2017-Nov-25 15:52N 31°06' E 121°28'0 0.0
2017-Nov-25 15:21N 31°06' E 121°28'0 0.0
2017-Nov-25 15:00N 31°06' E 121°28'0 0.0
2017-Nov-25 14:24N 31°06' E 121°28'0 0.0
2017-Nov-25 14:00N 31°06' E 121°28'0 0.0
2017-Nov-25 12:59N 31°06' E 121°28'0 0.0
2017-Nov-25 12:26N 31°06' E 121°28'0 0.0
2017-Nov-25 11:56N 31°06' E 121°28'0 0.0
2017-Nov-25 11:29N 31°06' E 121°28'0 0.0
2017-Nov-25 10:55N 31°06' E 121°28'0 0.0
2017-Nov-25 10:28N 31°06' E 121°28'0 0.0
2017-Nov-25 09:58N 31°06' E 121°28'0 0.0
2017-Nov-25 09:25N 31°06' E 121°28'0 0.0
2017-Nov-25 08:49N 31°06' E 121°28'0 0.0
2017-Nov-25 08:30N 31°06' E 121°28'0 0.0
2017-Nov-25 07:48N 31°06' E 121°28'0 0.0
2017-Nov-25 07:24N 31°06' E 121°28'0 0.0
2017-Nov-25 06:54N 31°06' E 121°28'0 0.0
2017-Nov-25 06:30N 31°06' E 121°28'0 0.0
2017-Nov-25 05:17N 31°06' E 121°28'0 0.0
2017-Nov-25 04:41N 31°06' E 121°28'0 0.0
2017-Nov-25 04:23N 31°06' E 121°28'0 0.0
2017-Nov-25 03:52N 31°06' E 121°28'0 0.0
2017-Nov-25 03:16N 31°06' E 121°28'0 0.0
2017-Nov-25 02:52N 31°06' E 121°28'0 0.0
2017-Nov-25 02:28N 31°06' E 121°28'0 0.0
2017-Nov-25 01:55N 31°06' E 121°28'0 0.0
2017-Nov-25 01:15N 31°06' E 121°28'0 0.0
2017-Nov-25 01:00N 31°06' E 121°28'0 0.0
2017-Nov-25 00:30N 31°06' E 121°28'0 0.0
2017-Nov-25 00:00N 31°06' E 121°28'0 0.0
2017-Nov-24 23:23N 31°06' E 121°28'0 0.0
2017-Nov-24 22:59N 31°06' E 121°28'0 0.0
2017-Nov-24 22:26N 31°06' E 121°28'0 0.0
2017-Nov-24 21:53N 31°06' E 121°28'0 0.0
2017-Nov-24 21:23N 31°06' E 121°28'0 0.0
2017-Nov-24 20:58N 31°06' E 121°28'0 0.0
2017-Nov-24 20:13N 31°06' E 121°28'0 0.0
2017-Nov-24 19:46N 31°06' E 121°28'0 0.0
2017-Nov-24 19:19N 31°06' E 121°28'0 0.0
2017-Nov-24 18:58N 31°06' E 121°28'0 0.0
2017-Nov-24 18:24N 31°06' E 121°28'0 0.0
2017-Nov-24 18:00N 31°06' E 121°28'0 0.0
2017-Nov-24 17:21N 31°06' E 121°28'0 0.0
2017-Nov-24 16:57N 31°06' E 121°28'0 0.0
2017-Nov-24 16:26N 31°06' E 121°28'0 0.0
2017-Nov-24 15:59N 31°06' E 121°28'0 0.0
2017-Nov-24 15:26N 31°06' E 121°28'0 0.0
2017-Nov-24 14:59N 31°06' E 121°28'0 0.0
2017-Nov-24 14:26N 31°06' E 121°28'0 0.0
2017-Nov-24 13:55N 31°06' E 121°28'0 0.0
2017-Nov-24 13:19N 31°06' E 121°28'0 0.0
2017-Nov-24 12:55N 31°06' E 121°28'0 0.0
2017-Nov-24 12:22N 31°06' E 121°28'0 0.0
2017-Nov-24 11:57N 31°06' E 121°28'0 0.0
2017-Nov-24 11:30N 31°06' E 121°28'0 0.0
2017-Nov-24 10:51N 31°06' E 121°28'0 0.0
2017-Nov-24 10:30N 31°06' E 121°28'0 0.0
2017-Nov-24 10:00N 31°06' E 121°28'  
Track history (hours):
 
Tides and Currents Weather Stations Pressure Air Temp Water Temp Dewpoint Dewpoint Depression Visibility Wind Speed Wind Dir Waves Ship Positions

Lena

Last reported at 2017-Dec-04 09:52 UTC. Time now 2017-Dec-13 08:59 UTC.
Position N 31°21' E 121°39'.
Warning: this ship's position is 8 days out of date.

Length 152 m; draft 6.4 m.

Type: Ship. MMSI: 304080808.

Date/timePositionNaut miles runAvg speedWind from/ knotsBaromVisibWave heightAir tempDewpointWater temp
2017-Dec-04 09:52N 31°21' E 121°39'410.2
2017-Dec-04 09:31N 31°23' E 121°35'8 4.2
2017-Dec-04 07:34N 31°15' E 121°32'1 7.4
2017-Dec-04 07:23N 31°15' E 121°30'6 5.6
2017-Dec-04 06:22N 31°10' E 121°28'4 0.6
2017-Dec-04 00:11N 31°06' E 121°28'0 0.0
2017-Dec-03 22:58N 31°06' E 121°28'8 0.2
2017-Dec-02 05:29N 31°13' E 121°30'2 4.0
2017-Dec-02 05:00N 31°15' E 121°30'9 3.9
2017-Dec-02 02:43N 31°24' E 121°33'1 5.9
2017-Dec-02 02:30N 31°23' E 121°34'810.2
2017-Dec-02 01:45N 31°20' E 121°42'311.2
2017-Dec-02 01:27N 31°17' E 121°44'510.8
2017-Dec-02 01:00N 31°14' E 121°48'510.3
2017-Dec-02 00:30N 31°10' E 121°52'611.4
2017-Dec-02 00:00N 31°07' E 121°58'611.2
2017-Dec-01 23:30N 31°04' E 122°04'612.6
2017-Dec-01 23:00N 31°03' E 122°11'5 9.7
2017-Dec-01 22:30N 31°03' E 122°16'510.0
2017-Dec-01 21:59N 31°02' E 122°22'  
2017-Nov-29 10:54N 31°01' E 122°23'614.8
2017-Nov-29 10:28N 31°02' E 122°16'1210.4
2017-Nov-29 09:21N 31°04' E 122°02'2 6.7
2017-Nov-29 09:00N 31°06' E 121°60'511.0
2017-Nov-29 08:30N 31°08' E 121°54'713.3
2017-Nov-29 08:00N 31°13' E 121°48'1412.5
2017-Nov-29 06:55N 31°22' E 121°37'511.1
2017-Nov-29 06:26N 31°25' E 121°31'3 7.8
2017-Nov-29 06:00N 31°27' E 121°28'612.0
2017-Nov-29 05:30N 31°31' E 121°23'611.7
2017-Nov-29 05:00N 31°35' E 121°18'612.7
2017-Nov-29 04:30N 31°39' E 121°13'510.2
2017-Nov-29 04:00N 31°42' E 121°08'5 5.3
2017-Nov-29 03:02N 31°47' E 121°05'0 0.0
2017-Nov-29 02:59N 31°47' E 121°05'0 0.0
2017-Nov-29 01:07N 31°47' E 121°05'0 0.0
2017-Nov-29 00:55N 31°47' E 121°05'0 0.0
2017-Nov-29 00:01N 31°47' E 121°05'0 0.0
2017-Nov-28 23:52N 31°47' E 121°05'0 0.0
2017-Nov-28 23:09N 31°47' E 121°05'0 0.0
2017-Nov-28 22:57N 31°47' E 121°05'0 0.0
2017-Nov-28 22:27N 31°47' E 121°05'0 0.0
2017-Nov-28 21:48N 31°47' E 121°05'0 0.0
2017-Nov-28 21:21N 31°47' E 121°05'0 0.0
2017-Nov-28 20:59N 31°47' E 121°05'0 0.0
2017-Nov-28 19:29N 31°47' E 121°05'0 0.0
2017-Nov-28 18:46N 31°47' E 121°05'0 0.0
2017-Nov-28 17:10N 31°47' E 121°05'0 0.0
2017-Nov-28 16:55N 31°47' E 121°05'0 0.0
2017-Nov-28 16:30N 31°47' E 121°05'0 0.0
2017-Nov-28 16:00N 31°47' E 121°05'0 0.0
2017-Nov-28 10:49N 31°47' E 121°05'0 0.0
2017-Nov-28 08:45N 31°47' E 121°05'0 0.0
2017-Nov-28 05:56N 31°47' E 121°05'0 0.0
2017-Nov-28 05:29N 31°47' E 121°05'0 0.0
2017-Nov-28 03:40N 31°47' E 121°05'0 0.0
2017-Nov-28 02:06N 31°47' E 121°05'0 0.0
2017-Nov-27 23:14N 31°47' E 121°05'0 0.0
2017-Nov-27 18:42N 31°47' E 121°05'0 0.0
2017-Nov-27 17:08N 31°47' E 121°05'0 0.0
2017-Nov-27 16:50N 31°47' E 121°05'0 0.0
2017-Nov-27 14:43N 31°47' E 121°05'0 0.0
2017-Nov-27 12:00N 31°47' E 121°05'0 0.0
2017-Nov-27 10:14N 31°47' E 121°05'0 0.0
2017-Nov-27 09:59N 31°47' E 121°05'0 0.0
2017-Nov-27 07:46N 31°47' E 121°05'0 0.0
2017-Nov-27 04:36N 31°47' E 121°05'0 0.0
2017-Nov-27 02:29N 31°47' E 121°05'0 0.0
2017-Nov-27 01:59N 31°47' E 121°05'0 0.0
2017-Nov-27 01:26N 31°47' E 121°05'0 0.0
2017-Nov-27 00:38N 31°47' E 121°05'0 0.5
2017-Nov-27 00:20N 31°47' E 121°05'1 2.6
2017-Nov-26 23:50N 31°46' E 121°06'3 9.5
2017-Nov-26 23:29N 31°43' E 121°08'0 0.1
2017-Nov-26 22:43N 31°43' E 121°08'0 0.0
2017-Nov-26 22:25N 31°43' E 121°08'0 0.0
2017-Nov-26 21:58N 31°43' E 121°08'0 0.0
2017-Nov-26 21:31N 31°43' E 121°08'0 0.0
2017-Nov-26 19:36N 31°43' E 121°08'0 0.0
2017-Nov-26 19:24N 31°43' E 121°08'0 0.1
2017-Nov-26 18:59N 31°43' E 121°08'0 0.0
2017-Nov-26 18:17N 31°43' E 121°08'0 0.0
2017-Nov-26 17:41N 31°43' E 121°08'0 0.1
2017-Nov-26 17:11N 31°43' E 121°08'0 0.3
2017-Nov-26 16:59N 31°43' E 121°08'0 0.0
2017-Nov-26 15:52N 31°43' E 121°08'0 0.0
2017-Nov-26 15:25N 31°43' E 121°08'0 0.0
2017-Nov-26 14:18N 31°43' E 121°08'0 0.0
2017-Nov-26 12:05N 31°43' E 121°08'0 0.0
2017-Nov-26 11:59N 31°43' E 121°08'0 0.1
2017-Nov-26 11:29N 31°43' E 121°08'0 0.1
2017-Nov-26 10:56N 31°43' E 121°08'0 0.0
2017-Nov-26 10:23N 31°43' E 121°08'0 1.1
2017-Nov-26 10:00N 31°43' E 121°09'714.0
2017-Nov-26 09:30N 31°38' E 121°15'714.7
2017-Nov-26 09:00N 31°33' E 121°20'612.2
2017-Nov-26 08:30N 31°29' E 121°26'510.8
2017-Nov-26 08:00N 31°25' E 121°31'2 3.6
2017-Nov-26 07:30N 31°24' E 121°31'2 4.8
2017-Nov-26 07:00N 31°21' E 121°31'3 6.5
2017-Nov-26 06:29N 31°19' E 121°33'3 6.5
2017-Nov-26 06:01N 31°16' E 121°33'3 6.2
2017-Nov-26 05:30N 31°14' E 121°30'3 5.6
2017-Nov-26 05:00N 31°11' E 121°28'3 6.5
2017-Nov-26 04:30N 31°08' E 121°27'3 3.2
2017-Nov-26 03:42N 31°06' E 121°28'0 0.0
2017-Nov-26 03:27N 31°06' E 121°28'0 0.0
2017-Nov-26 02:59N 31°06' E 121°28'0 0.0
2017-Nov-26 01:41N 31°06' E 121°28'0 0.0
2017-Nov-26 01:17N 31°06' E 121°28'0 0.0
2017-Nov-26 00:46N 31°06' E 121°28'0 0.0
2017-Nov-26 00:28N 31°06' E 121°28'0 0.0
2017-Nov-25 23:55N 31°06' E 121°28'0 0.0
2017-Nov-25 23:25N 31°06' E 121°28'0 0.0
2017-Nov-25 22:55N 31°06' E 121°28'0 0.0
2017-Nov-25 22:30N 31°06' E 121°28'0 0.0
2017-Nov-25 21:57N 31°06' E 121°28'0 0.0
2017-Nov-25 21:30N 31°06' E 121°28'0 0.0
2017-Nov-25 20:45N 31°06' E 121°28'0 0.0
2017-Nov-25 20:24N 31°06' E 121°28'0 0.0
2017-Nov-25 19:59N 31°06' E 121°28'0 0.0
2017-Nov-25 19:23N 31°06' E 121°28'0 0.0
2017-Nov-25 18:59N 31°06' E 121°28'0 0.0
2017-Nov-25 18:26N 31°06' E 121°28'0 0.0
2017-Nov-25 17:52N 31°06' E 121°28'0 0.0
2017-Nov-25 17:28N 31°06' E 121°28'0 0.0
2017-Nov-25 16:58N 31°06' E 121°28'0 0.0
2017-Nov-25 16:28N 31°06' E 121°28'0 0.0
2017-Nov-25 15:52N 31°06' E 121°28'0 0.0
2017-Nov-25 15:21N 31°06' E 121°28'0 0.0
2017-Nov-25 15:00N 31°06' E 121°28'0 0.0
2017-Nov-25 14:24N 31°06' E 121°28'0 0.0
2017-Nov-25 14:00N 31°06' E 121°28'0 0.0
2017-Nov-25 12:59N 31°06' E 121°28'0 0.0
2017-Nov-25 12:26N 31°06' E 121°28'0 0.0
2017-Nov-25 11:56N 31°06' E 121°28'0 0.0
2017-Nov-25 11:29N 31°06' E 121°28'0 0.0
2017-Nov-25 10:55N 31°06' E 121°28'0 0.0
2017-Nov-25 10:28N 31°06' E 121°28'0 0.0
2017-Nov-25 09:58N 31°06' E 121°28'0 0.0
2017-Nov-25 09:25N 31°06' E 121°28'0 0.0
2017-Nov-25 08:49N 31°06' E 121°28'0 0.0
2017-Nov-25 08:30N 31°06' E 121°28'0 0.0
2017-Nov-25 07:48N 31°06' E 121°28'0 0.0
2017-Nov-25 07:24N 31°06' E 121°28'0 0.0
2017-Nov-25 06:54N 31°06' E 121°28'0 0.0
2017-Nov-25 06:30N 31°06' E 121°28'0 0.0
2017-Nov-25 05:17N 31°06' E 121°28'0 0.0
2017-Nov-25 04:41N 31°06' E 121°28'0 0.0
2017-Nov-25 04:23N 31°06' E 121°28'0 0.0
2017-Nov-25 03:52N 31°06' E 121°28'0 0.0
2017-Nov-25 03:16N 31°06' E 121°28'0 0.0
2017-Nov-25 02:52N 31°06' E 121°28'0 0.0
2017-Nov-25 02:28N 31°06' E 121°28'0 0.0
2017-Nov-25 01:55N 31°06' E 121°28'0 0.0
2017-Nov-25 01:15N 31°06' E 121°28'0 0.0
2017-Nov-25 01:00N 31°06' E 121°28'0 0.0
2017-Nov-25 00:30N 31°06' E 121°28'0 0.0
2017-Nov-25 00:00N 31°06' E 121°28'0 0.0
2017-Nov-24 23:23N 31°06' E 121°28'0 0.0
2017-Nov-24 22:59N 31°06' E 121°28'0 0.0
2017-Nov-24 22:26N 31°06' E 121°28'0 0.0
2017-Nov-24 21:53N 31°06' E 121°28'0 0.0
2017-Nov-24 21:23N 31°06' E 121°28'0 0.0
2017-Nov-24 20:58N 31°06' E 121°28'0 0.0
2017-Nov-24 20:13N 31°06' E 121°28'0 0.0
2017-Nov-24 19:46N 31°06' E 121°28'0 0.0
2017-Nov-24 19:19N 31°06' E 121°28'0 0.0
2017-Nov-24 18:58N 31°06' E 121°28'0 0.0
2017-Nov-24 18:24N 31°06' E 121°28'0 0.0
2017-Nov-24 18:00N 31°06' E 121°28'0 0.0
2017-Nov-24 17:21N 31°06' E 121°28'0 0.0
2017-Nov-24 16:57N 31°06' E 121°28'0 0.0
2017-Nov-24 16:26N 31°06' E 121°28'0 0.0
2017-Nov-24 15:59N 31°06' E 121°28'0 0.0
2017-Nov-24 15:26N 31°06' E 121°28'0 0.0
2017-Nov-24 14:59N 31°06' E 121°28'0 0.0
2017-Nov-24 14:26N 31°06' E 121°28'0 0.0
2017-Nov-24 13:55N 31°06' E 121°28'0 0.0
2017-Nov-24 13:19N 31°06' E 121°28'0 0.0
2017-Nov-24 12:55N 31°06' E 121°28'0 0.0
2017-Nov-24 12:22N 31°06' E 121°28'0 0.0
2017-Nov-24 11:57N 31°06' E 121°28'0 0.0
2017-Nov-24 11:30N 31°06' E 121°28'0 0.0
2017-Nov-24 10:51N 31°06' E 121°28'0 0.0
2017-Nov-24 10:30N 31°06' E 121°28'0 0.0
2017-Nov-24 10:00N 31°06' E 121°28'  

Dump ship's entire track history